createdAt,value
2022-12-15T00:02:24.733Z,66.28
2022-12-15T00:05:10.118Z,66.27
2022-12-15T00:07:55.404Z,66.23
2022-12-15T00:10:40.538Z,66.37
2022-12-15T00:13:29.828Z,66.58
2022-12-15T00:16:15.440Z,66.21
2022-12-15T00:19:01.989Z,66.47
2022-12-15T00:21:47.076Z,66.10
2022-12-15T00:24:32.453Z,66.19
2022-12-15T00:27:17.741Z,66.54
2022-12-15T00:30:03.433Z,66.17
2022-12-15T00:32:48.894Z,66.43
2022-12-15T00:35:35.940Z,66.52
2022-12-15T00:38:26.147Z,66.20
2022-12-15T00:40:59.089Z,66.00
2022-12-15T00:43:28.019Z,66.45
2022-12-15T00:46:13.706Z,66.03
2022-12-15T00:48:42.200Z,66.33
2022-12-15T00:51:10.695Z,66.40
2022-12-15T00:53:56.809Z,66.31
2022-12-15T00:56:43.211Z,65.86
2022-12-15T00:59:28.919Z,66.37
2022-12-15T01:02:14.542Z,66.38
2022-12-15T01:04:59.713Z,66.72
2022-12-15T01:07:49.939Z,66.54
2022-12-15T01:10:36.513Z,66.40
2022-12-15T01:13:22.736Z,66.24
2022-12-15T01:16:08.450Z,66.42
2022-12-15T01:18:53.811Z,66.64
2022-12-15T01:21:24.740Z,66.62
2022-12-15T01:23:54.662Z,66.80
2022-12-15T01:26:22.424Z,67.18
2022-12-15T01:28:50.209Z,67.11
2022-12-15T01:31:17.952Z,67.09
2022-12-15T01:33:45.723Z,66.37
2022-12-15T01:36:14.211Z,66.99
2022-12-15T01:38:42.637Z,67.04
2022-12-15T01:41:12.296Z,66.53
2022-12-15T01:43:41.743Z,66.76
2022-12-15T01:46:11.217Z,66.67
2022-12-15T01:48:43.081Z,67.13
2022-12-15T01:51:23.618Z,66.84
2022-12-15T01:53:56.780Z,66.40
2022-12-15T01:56:30.095Z,66.78
2022-12-15T01:59:03.918Z,66.50
2022-12-15T02:01:32.192Z,66.32
2022-12-15T02:04:00.198Z,66.41
2022-12-15T02:06:29.486Z,66.84
2022-12-15T02:08:59.934Z,66.36
2022-12-15T02:11:49.202Z,66.42
2022-12-15T02:14:26.645Z,66.75
2022-12-15T02:17:07.574Z,66.95
2022-12-15T02:20:02.357Z,66.76
2022-12-15T02:22:48.309Z,66.57
2022-12-15T02:25:31.052Z,66.80
2022-12-15T02:28:04.965Z,66.84
2022-12-15T02:31:13.418Z,66.36
2022-12-15T02:33:47.568Z,66.14
2022-12-15T02:36:19.892Z,66.11
2022-12-15T02:38:47.686Z,66.28
2022-12-15T02:41:37.431Z,66.56
2022-12-15T02:44:09.673Z,66.54
2022-12-15T02:46:52.283Z,66.87
2022-12-15T02:49:30.188Z,66.77
2022-12-15T02:52:11.083Z,66.34
2022-12-15T02:54:58.920Z,66.19
2022-12-15T02:57:33.828Z,66.33
2022-12-15T03:00:05.085Z,66.45
2022-12-15T03:02:37.907Z,66.77
2022-12-15T03:05:06.341Z,66.65
2022-12-15T03:07:34.167Z,66.23
2022-12-15T03:10:06.188Z,66.33
2022-12-15T03:12:33.974Z,66.64
2022-12-15T03:15:01.788Z,66.32
2022-12-15T03:17:29.558Z,66.80
2022-12-15T03:19:58.671Z,66.26
2022-12-15T03:22:26.546Z,66.30
2022-12-15T03:24:56.621Z,66.36
2022-12-15T03:27:24.485Z,66.17
2022-12-15T03:29:52.208Z,66.10
2022-12-15T03:32:20.069Z,66.52
2022-12-15T03:34:47.881Z,66.22
2022-12-15T03:37:16.958Z,66.51
2022-12-15T03:39:44.649Z,66.39
2022-12-15T03:42:13.488Z,66.46
2022-12-15T03:44:41.448Z,66.38
2022-12-15T03:47:09.306Z,65.64
2022-12-15T03:49:37.007Z,66.16
2022-12-15T03:52:04.842Z,66.64
2022-12-15T03:54:34.445Z,66.68
2022-12-15T03:57:02.146Z,66.50
2022-12-15T03:59:30.029Z,66.25
2022-12-15T04:01:57.857Z,65.90
2022-12-15T04:04:25.796Z,65.95
2022-12-15T04:06:53.512Z,65.86
2022-12-15T04:09:21.223Z,66.33
2022-12-15T04:11:50.380Z,65.67
2022-12-15T04:14:18.286Z,65.67
2022-12-15T04:16:46.158Z,65.79
2022-12-15T04:19:31.305Z,66.29
2022-12-15T04:22:02.412Z,65.78
2022-12-15T04:24:47.672Z,66.57
2022-12-15T04:27:34.692Z,66.28
2022-12-15T04:30:20.456Z,66.50
2022-12-15T04:33:06.240Z,66.23
2022-12-15T04:35:53.261Z,66.05
2022-12-15T04:38:43.927Z,66.70
2022-12-15T04:41:37.272Z,66.76
2022-12-15T04:44:24.785Z,66.90
2022-12-15T04:47:10.114Z,66.29
2022-12-15T04:49:55.364Z,66.47
2022-12-15T04:52:40.585Z,66.83
2022-12-15T04:55:26.651Z,67.08
2022-12-15T04:58:11.835Z,67.08
2022-12-15T05:00:59.023Z,67.08
2022-12-15T05:03:44.131Z,67.26
2022-12-15T05:06:29.734Z,66.92
2022-12-15T05:09:14.889Z,67.71
2022-12-15T05:12:00.487Z,67.46
2022-12-15T05:14:45.622Z,67.66
2022-12-15T05:17:41.329Z,67.51
2022-12-15T05:20:28.340Z,67.64
2022-12-15T05:23:14.490Z,67.34
2022-12-15T05:25:59.798Z,67.31
2022-12-15T05:28:45.380Z,67.03
2022-12-15T05:31:30.701Z,67.13
2022-12-15T05:34:05.137Z,67.01
2022-12-15T05:36:33.787Z,67.12
2022-12-15T05:39:01.559Z,67.14
2022-12-15T05:41:29.353Z,67.71
2022-12-15T05:43:57.122Z,67.19
2022-12-15T05:46:25.063Z,67.75
2022-12-15T05:48:52.808Z,67.21
2022-12-15T05:51:22.010Z,67.87
2022-12-15T05:53:49.759Z,67.36
2022-12-15T05:56:17.540Z,67.91
2022-12-15T05:58:45.834Z,67.46
2022-12-15T06:01:15.746Z,67.72
2022-12-15T06:03:44.036Z,67.87
2022-12-15T06:06:13.847Z,67.48
2022-12-15T06:08:44.411Z,67.85
2022-12-15T06:11:13.263Z,68.08
2022-12-15T06:13:41.283Z,67.69
2022-12-15T06:16:12.333Z,67.76
2022-12-15T06:18:42.113Z,67.82
2022-12-15T06:21:12.193Z,68.51
2022-12-15T06:23:41.206Z,67.86
2022-12-15T06:26:12.440Z,68.00
2022-12-15T06:28:40.363Z,67.99
2022-12-15T06:31:10.266Z,68.66
2022-12-15T06:33:38.823Z,68.91
2022-12-15T06:36:09.393Z,68.69
2022-12-15T06:38:38.180Z,68.76
2022-12-15T06:41:08.025Z,68.78
2022-12-15T06:43:37.149Z,69.26
2022-12-15T06:46:04.970Z,68.97
2022-12-15T06:48:32.776Z,69.29
2022-12-15T06:51:04.608Z,69.38
2022-12-15T06:53:33.162Z,68.84
2022-12-15T06:56:02.449Z,69.06
2022-12-15T06:58:30.516Z,68.98
2022-12-15T07:01:01.789Z,68.96
2022-12-15T07:03:30.159Z,68.96
2022-12-15T07:06:04.023Z,69.28
2022-12-15T07:08:37.915Z,69.19
2022-12-15T07:11:10.996Z,69.02
2022-12-15T07:13:39.247Z,69.52
2022-12-15T07:16:10.451Z,69.03
2022-12-15T07:18:38.841Z,69.41
2022-12-15T07:21:08.704Z,68.75
2022-12-15T07:23:53.623Z,69.07
2022-12-15T07:26:23.472Z,68.71
2022-12-15T07:28:51.200Z,69.01
2022-12-15T07:31:20.285Z,69.34
2022-12-15T07:33:48.694Z,69.53
2022-12-15T07:36:16.930Z,69.89
2022-12-15T07:38:50.409Z,69.70
2022-12-15T07:41:20.957Z,69.91
2022-12-15T07:43:49.313Z,69.63
2022-12-15T07:46:17.936Z,69.78
2022-12-15T07:48:50.419Z,69.19
2022-12-15T07:51:21.113Z,69.51
2022-12-15T07:53:49.778Z,69.16
2022-12-15T07:56:18.579Z,69.03
2022-12-15T07:58:46.463Z,69.17
2022-12-15T08:01:15.764Z,68.82
2022-12-15T08:03:44.908Z,68.65
2022-12-15T08:06:15.645Z,69.13
2022-12-15T08:08:50.732Z,68.18
2022-12-15T08:11:21.571Z,68.50
2022-12-15T08:14:09.241Z,68.58
2022-12-15T08:16:37.745Z,68.43
2022-12-15T08:19:06.354Z,68.51
2022-12-15T08:21:35.948Z,69.00
2022-12-15T08:24:04.266Z,68.42
2022-12-15T08:26:32.136Z,68.21
2022-12-15T08:29:40.719Z,67.97
2022-12-15T08:31:52.728Z,68.31
2022-12-15T08:34:20.791Z,67.98
2022-12-15T08:36:50.166Z,67.75
2022-12-15T08:39:17.995Z,68.06
2022-12-15T08:41:45.896Z,67.64
2022-12-15T08:44:13.709Z,67.81
2022-12-15T08:46:41.463Z,67.47
2022-12-15T08:49:09.835Z,67.69
2022-12-15T08:51:37.638Z,67.87
2022-12-15T08:54:06.775Z,67.98
2022-12-15T08:56:34.675Z,67.55
2022-12-15T08:59:03.130Z,66.65
2022-12-15T09:01:32.886Z,66.11
2022-12-15T09:04:01.329Z,65.95
2022-12-15T09:06:32.447Z,65.55
2022-12-15T09:09:02.026Z,65.56
2022-12-15T09:11:31.815Z,65.41
2022-12-15T09:14:00.129Z,65.90
2022-12-15T09:16:28.720Z,65.88
2022-12-15T09:18:58.474Z,65.47
2022-12-15T09:21:29.454Z,64.93
2022-12-15T09:24:00.604Z,64.49
2022-12-15T09:26:32.112Z,64.58
2022-12-15T09:29:00.112Z,64.70
2022-12-15T09:31:29.610Z,64.26
2022-12-15T09:34:00.818Z,64.06
2022-12-15T09:36:30.298Z,64.32
2022-12-15T09:38:59.529Z,64.49
2022-12-15T09:41:30.420Z,64.45
2022-12-15T09:44:05.866Z,64.55
2022-12-15T09:46:49.782Z,64.58
2022-12-15T09:49:35.039Z,64.03
2022-12-15T09:52:10.975Z,63.28
2022-12-15T09:54:42.029Z,62.81
2022-12-15T09:57:17.879Z,63.20
2022-12-15T09:59:59.751Z,63.08
2022-12-15T10:02:49.659Z,62.81
2022-12-15T10:05:57.663Z,62.11
2022-12-15T10:08:20.057Z,61.83
2022-12-15T10:10:55.024Z,61.04
2022-12-15T10:13:31.170Z,61.47
2022-12-15T10:16:04.203Z,61.24
2022-12-15T10:18:38.512Z,61.23
2022-12-15T10:21:07.161Z,60.60
2022-12-15T10:23:37.603Z,60.57
2022-12-15T10:26:20.649Z,60.85
2022-12-15T10:29:03.684Z,61.08
2022-12-15T10:31:38.890Z,61.46
2022-12-15T10:34:11.592Z,61.09
2022-12-15T10:36:45.844Z,61.92
2022-12-15T10:39:17.686Z,61.55
2022-12-15T10:41:45.590Z,61.76
2022-12-15T10:44:31.823Z,61.55
2022-12-15T10:47:10.833Z,62.13
2022-12-15T10:49:39.204Z,61.92
2022-12-15T10:52:17.355Z,61.24
2022-12-15T10:54:59.796Z,61.02
2022-12-15T10:57:29.016Z,61.33
2022-12-15T11:00:19.662Z,60.12
2022-12-15T11:02:48.864Z,59.32
2022-12-15T11:05:19.365Z,58.34
2022-12-15T11:07:49.432Z,56.95
2022-12-15T11:10:21.454Z,55.18
2022-12-15T11:12:59.063Z,54.76
2022-12-15T11:15:42.388Z,54.88
2022-12-15T11:18:24.256Z,54.53
2022-12-15T11:20:57.187Z,54.48
2022-12-15T11:23:35.559Z,54.26
2022-12-15T11:26:10.412Z,53.51
2022-12-15T11:28:44.853Z,52.86
2022-12-15T11:31:25.138Z,52.46
2022-12-15T11:33:55.221Z,51.57
2022-12-15T11:36:53.382Z,51.90
2022-12-15T11:39:33.153Z,51.23
2022-12-15T11:42:09.515Z,51.31
2022-12-15T11:44:48.981Z,52.15
2022-12-15T11:47:23.880Z,52.66
2022-12-15T11:50:17.832Z,52.67
2022-12-15T11:53:05.287Z,51.75
2022-12-15T11:55:44.275Z,51.66
2022-12-15T11:58:29.219Z,52.25
2022-12-15T12:01:07.426Z,52.14
2022-12-15T12:03:49.242Z,51.84
2022-12-15T12:06:28.079Z,51.88
2022-12-15T12:09:17.509Z,50.84
2022-12-15T12:11:54.490Z,49.52
2022-12-15T12:14:35.392Z,49.10
2022-12-15T12:17:08.154Z,49.47
2022-12-15T12:19:42.366Z,49.57
2022-12-15T12:22:23.108Z,49.59
2022-12-15T12:24:57.246Z,50.41
2022-12-15T12:27:29.728Z,51.07
2022-12-15T12:30:05.211Z,51.59
2022-12-15T12:32:42.847Z,52.30
2022-12-15T12:35:31.858Z,51.93
2022-12-15T12:38:05.051Z,52.53
2022-12-15T12:40:46.265Z,52.04
2022-12-15T12:43:27.166Z,51.54
2022-12-15T12:45:58.197Z,51.39
2022-12-15T12:48:33.207Z,51.89
2022-12-15T12:51:20.445Z,52.55
2022-12-15T12:53:50.441Z,53.05
2022-12-15T12:56:40.852Z,53.02
2022-12-15T12:59:36.303Z,51.45
2022-12-15T13:02:56.225Z,50.55
2022-12-15T13:05:35.435Z,51.01
2022-12-15T13:08:29.719Z,52.77
2022-12-15T13:11:38.239Z,53.80
2022-12-15T13:14:09.208Z,54.09
2022-12-15T13:17:08.089Z,54.20
2022-12-15T13:20:05.705Z,54.90
2022-12-15T13:22:36.194Z,54.98
2022-12-15T13:25:24.603Z,55.86
2022-12-15T13:27:57.857Z,56.89
2022-12-15T13:30:25.955Z,57.09
2022-12-15T13:32:56.173Z,58.25
2022-12-15T13:35:27.143Z,58.37
2022-12-15T13:37:56.727Z,57.83
2022-12-15T13:40:34.981Z,58.18
2022-12-15T13:43:31.964Z,58.46
2022-12-15T13:46:01.929Z,58.93
2022-12-15T13:48:38.456Z,59.67
2022-12-15T13:51:35.992Z,59.20
2022-12-15T13:54:15.333Z,59.53
2022-12-15T13:57:04.433Z,59.76
2022-12-15T13:59:42.145Z,60.24
2022-12-15T14:02:34.478Z,60.21
2022-12-15T14:05:20.045Z,60.22
2022-12-15T14:07:54.794Z,60.45
2022-12-15T14:10:25.452Z,60.44
2022-12-15T14:12:56.306Z,60.35
2022-12-15T14:15:29.525Z,60.23
2022-12-15T14:17:59.843Z,60.52
2022-12-15T14:20:30.651Z,60.14
2022-12-15T14:22:58.520Z,60.00
2022-12-15T14:25:29.216Z,60.24
2022-12-15T14:27:57.804Z,60.13
2022-12-15T14:30:30.933Z,60.49
2022-12-15T14:33:03.785Z,60.68
2022-12-15T14:35:37.571Z,60.75
2022-12-15T14:38:13.134Z,60.96
2022-12-15T14:40:42.787Z,60.67
2022-12-15T14:43:22.092Z,60.90
2022-12-15T14:45:56.023Z,61.67
2022-12-15T14:48:53.491Z,61.90
2022-12-15T14:51:19.032Z,61.79
2022-12-15T14:53:53.051Z,61.56
2022-12-15T14:56:30.844Z,61.88
2022-12-15T14:59:03.608Z,61.88
2022-12-15T15:01:36.872Z,61.92
2022-12-15T15:04:06.651Z,62.31
2022-12-15T15:06:37.332Z,62.52
2022-12-15T15:09:23.659Z,62.21
2022-12-15T15:11:55.332Z,62.56
2022-12-15T15:14:27.044Z,62.27
2022-12-15T15:17:17.478Z,62.25
2022-12-15T15:19:49.505Z,62.81
2022-12-15T15:22:28.359Z,62.41
2022-12-15T15:24:56.151Z,62.30
2022-12-15T15:27:26.729Z,62.69
2022-12-15T15:30:13.382Z,63.10
2022-12-15T15:32:56.000Z,63.39
2022-12-15T15:35:26.753Z,62.78
2022-12-15T15:37:56.855Z,63.16
2022-12-15T15:40:25.353Z,63.10
2022-12-15T15:42:53.232Z,63.67
2022-12-15T15:45:21.107Z,63.51
2022-12-15T15:47:56.323Z,63.89
2022-12-15T15:50:30.030Z,63.36
2022-12-15T15:52:58.472Z,63.93
2022-12-15T15:55:36.211Z,63.87
2022-12-15T15:58:11.848Z,63.98
2022-12-15T16:00:40.455Z,64.01
2022-12-15T16:03:10.075Z,63.98
2022-12-15T16:05:38.220Z,64.52
2022-12-15T16:08:06.489Z,64.59
2022-12-15T16:10:34.250Z,64.20
2022-12-15T16:13:02.152Z,64.53
2022-12-15T16:15:32.734Z,64.15
2022-12-15T16:18:00.965Z,64.05
2022-12-15T16:20:30.970Z,64.47
2022-12-15T16:23:01.278Z,64.62
2022-12-15T16:25:39.774Z,64.65
2022-12-15T16:28:14.391Z,64.43
2022-12-15T16:30:43.388Z,64.68
2022-12-15T16:33:12.070Z,64.35
2022-12-15T16:35:42.594Z,64.58
2022-12-15T16:38:15.903Z,64.76
2022-12-15T16:40:47.094Z,64.50
2022-12-15T16:43:18.687Z,64.09
2022-12-15T16:45:48.682Z,64.40
2022-12-15T16:48:17.905Z,64.85
2022-12-15T16:50:51.987Z,65.03
2022-12-15T16:53:22.835Z,64.71
2022-12-15T16:55:54.759Z,64.88
2022-12-15T16:58:25.028Z,65.08
2022-12-15T17:00:53.685Z,64.71
2022-12-15T17:03:29.732Z,64.53
2022-12-15T17:06:03.822Z,65.19
2022-12-15T17:08:57.632Z,65.24
2022-12-15T17:11:37.179Z,64.67
2022-12-15T17:14:08.138Z,64.48
2022-12-15T17:16:38.650Z,64.66
2022-12-15T17:19:23.909Z,65.16
2022-12-15T17:28:02.123Z,65.04
2022-12-15T17:30:55.960Z,65.95
2022-12-15T17:33:34.614Z,65.45
2022-12-15T17:36:16.050Z,65.10
2022-12-15T17:39:31.243Z,65.05
2022-12-15T17:42:03.405Z,65.26
2022-12-15T17:45:24.806Z,65.10
2022-12-15T17:47:53.836Z,65.42
2022-12-15T17:50:22.646Z,64.98
2022-12-15T17:52:52.575Z,65.04
2022-12-15T17:56:04.699Z,65.51
2022-12-15T17:58:52.480Z,65.14
2022-12-15T18:01:26.971Z,65.29
2022-12-15T18:03:56.871Z,65.21
2022-12-15T18:06:28.721Z,65.24
2022-12-15T18:08:57.115Z,65.05
2022-12-15T18:11:26.340Z,65.35
2022-12-15T18:17:50.227Z,65.07
2022-12-15T18:20:22.891Z,65.57
2022-12-15T18:22:51.480Z,65.65
2022-12-15T18:25:22.157Z,65.21
2022-12-15T18:27:50.455Z,65.16
2022-12-15T18:30:21.703Z,65.14
2022-12-15T18:32:54.787Z,65.54
2022-12-15T18:35:27.399Z,65.20
2022-12-15T18:37:56.391Z,65.29
2022-12-15T18:40:28.325Z,65.30
2022-12-15T18:42:57.394Z,65.11
2022-12-15T18:45:28.372Z,65.48
2022-12-15T18:47:57.616Z,65.23
2022-12-15T18:50:26.619Z,65.21
2022-12-15T18:53:07.140Z,65.62
2022-12-15T18:56:08.046Z,65.19
2022-12-15T18:58:39.345Z,65.71
2022-12-15T19:01:08.718Z,65.79
2022-12-15T19:03:38.843Z,65.46
2022-12-15T19:06:44.892Z,65.76
2022-12-15T19:09:16.847Z,65.79
2022-12-15T19:12:17.545Z,65.85
2022-12-15T19:14:47.037Z,65.83
2022-12-15T19:17:34.748Z,65.55
2022-12-15T19:20:22.837Z,65.70
2022-12-15T19:22:50.928Z,65.46
2022-12-15T19:25:25.942Z,65.58
2022-12-15T19:27:58.556Z,65.95
2022-12-15T19:30:28.779Z,65.54
2022-12-15T19:33:19.627Z,65.83
2022-12-15T19:36:23.443Z,66.16
2022-12-15T19:39:59.203Z,65.96
2022-12-15T19:42:51.043Z,65.38
2022-12-15T19:45:31.468Z,65.96
2022-12-15T19:48:05.771Z,65.40
2022-12-15T19:54:24.716Z,65.19
2022-12-15T19:57:54.317Z,65.16
2022-12-15T20:03:29.863Z,65.08
2022-12-15T20:06:08.941Z,64.94
2022-12-15T20:08:54.663Z,65.32
2022-12-15T20:11:53.621Z,64.82
2022-12-15T20:17:11.555Z,64.95
2022-12-15T20:19:51.122Z,64.94
2022-12-15T20:22:21.163Z,64.93
2022-12-15T20:28:45.882Z,64.99
2022-12-15T20:31:28.746Z,65.21
2022-12-15T20:34:02.993Z,64.84
2022-12-15T20:36:34.231Z,64.88
2022-12-15T20:39:22.502Z,64.83
2022-12-15T20:41:53.885Z,65.21
2022-12-15T20:45:02.940Z,64.96
2022-12-15T20:47:56.018Z,64.81
2022-12-15T20:51:04.387Z,65.26
2022-12-15T20:53:44.625Z,65.32
2022-12-15T20:56:17.670Z,65.22
2022-12-15T20:58:51.490Z,64.82
2022-12-15T21:01:37.743Z,64.86
2022-12-15T21:04:27.205Z,64.88
2022-12-15T21:07:18.831Z,65.19
2022-12-15T21:09:51.992Z,65.34
2022-12-15T21:12:30.788Z,64.89
2022-12-15T21:15:05.027Z,65.46
2022-12-15T21:17:41.968Z,64.87
2022-12-15T21:20:17.321Z,65.36
2022-12-15T21:23:02.543Z,65.07
2022-12-15T21:25:34.438Z,65.35
2022-12-15T21:28:07.606Z,65.09
2022-12-15T21:30:55.217Z,65.51
2022-12-15T21:33:35.588Z,65.25
2022-12-15T21:36:06.132Z,64.93
2022-12-15T21:38:40.642Z,65.00
2022-12-15T21:41:17.288Z,65.18
2022-12-15T21:43:52.630Z,65.17
2022-12-15T21:46:31.139Z,65.26
2022-12-15T21:49:23.387Z,64.83
2022-12-15T21:52:03.029Z,65.11
2022-12-15T21:55:00.871Z,64.61
2022-12-15T21:57:44.562Z,64.61
2022-12-15T22:07:37.765Z,65.25
2022-12-15T22:13:04.737Z,64.67
2022-12-15T22:15:37.093Z,64.71
2022-12-15T22:18:10.663Z,65.22
2022-12-15T22:20:45.892Z,65.37
2022-12-15T22:23:15.804Z,64.71
2022-12-15T22:25:47.420Z,65.05
2022-12-15T22:28:24.745Z,65.19
2022-12-15T22:30:56.126Z,64.99
2022-12-15T22:33:37.749Z,64.68
2022-12-15T22:36:57.807Z,65.01
2022-12-15T23:05:33.455Z,64.61
2022-12-15T23:08:01.257Z,64.36
2022-12-15T23:10:46.421Z,64.68
2022-12-15T23:13:14.168Z,65.10
2022-12-15T23:16:00.844Z,64.88
2022-12-15T23:18:28.595Z,64.73
2022-12-15T23:20:56.552Z,64.98
2022-12-15T23:23:25.728Z,64.91
2022-12-15T23:25:54.714Z,64.79
2022-12-15T23:28:22.843Z,65.34
2022-12-15T23:30:53.143Z,65.27
2022-12-15T23:33:22.288Z,65.16
2022-12-15T23:35:49.968Z,65.26
2022-12-15T23:38:18.313Z,65.29
2022-12-15T23:40:51.073Z,65.28
2022-12-15T23:43:20.999Z,65.31
2022-12-15T23:45:56.834Z,65.33
2022-12-15T23:48:25.943Z,65.34
2022-12-15T23:50:53.769Z,64.62
2022-12-15T23:53:21.475Z,64.69
2022-12-15T23:55:49.261Z,65.19
2022-12-15T23:58:18.198Z,65.03
